createdAt,value
2023-04-22T00:00:22.000Z,95.0
2023-04-22T00:00:52.000Z,95.0
2023-04-22T00:01:27.000Z,95.0
2023-04-22T00:01:57.000Z,95.0
2023-04-22T00:02:32.000Z,95.0
2023-04-22T00:02:53.000Z,95.0
2023-04-22T00:03:17.000Z,95.0
2023-04-22T00:03:52.000Z,95.0
2023-04-22T00:04:18.000Z,96.0
2023-04-22T00:04:36.000Z,96.0
2023-04-22T00:05:01.000Z,95.0
2023-04-22T00:05:26.000Z,96.0
2023-04-22T00:05:52.000Z,96.0
2023-04-22T00:06:32.000Z,96.0
2023-04-22T00:06:54.000Z,96.0
2023-04-22T00:07:14.000Z,96.0
2023-04-22T00:07:41.000Z,96.0
2023-04-22T00:08:08.000Z,96.0
2023-04-22T00:08:36.000Z,95.0
2023-04-22T00:09:01.000Z,95.0
2023-04-22T00:09:26.000Z,95.0
2023-04-22T00:09:52.000Z,95.0
2023-04-22T00:10:21.000Z,95.0
2023-04-22T00:10:48.000Z,95.0
2023-04-22T00:11:14.000Z,95.0
2023-04-22T00:11:32.000Z,95.0
2023-04-22T00:11:52.000Z,95.0
2023-04-22T00:12:22.000Z,95.0
2023-04-22T00:12:51.000Z,96.0
2023-04-22T00:13:26.000Z,95.0
2023-04-22T00:13:57.000Z,96.0
2023-04-22T00:14:32.000Z,96.0
2023-04-22T00:14:53.000Z,96.0
2023-04-22T00:15:17.000Z,96.0
2023-04-22T00:15:51.000Z,96.0
2023-04-22T00:16:22.000Z,96.0
2023-04-22T00:17:01.000Z,96.0
2023-04-22T00:17:26.000Z,96.0
2023-04-22T00:17:52.000Z,96.0
2023-04-22T00:18:21.000Z,96.0
2023-04-22T00:18:48.000Z,96.0
2023-04-22T00:19:14.000Z,96.0
2023-04-22T00:19:41.000Z,96.0
2023-04-22T00:20:08.000Z,97.0
2023-04-22T00:20:34.000Z,97.0
2023-04-22T00:20:52.000Z,96.0
2023-04-22T00:21:27.000Z,96.0
2023-04-22T00:21:57.000Z,96.0
2023-04-22T00:22:32.000Z,96.0
2023-04-22T00:22:53.000Z,96.0
2023-04-22T00:23:17.000Z,96.0
2023-04-22T00:23:52.000Z,96.0
2023-04-22T00:24:22.000Z,96.0
2023-04-22T00:24:52.000Z,96.0
2023-04-22T00:25:27.000Z,96.0
2023-04-22T00:25:57.000Z,96.0
2023-04-22T00:26:31.000Z,96.0
2023-04-22T00:26:56.000Z,96.0
2023-04-22T00:27:31.000Z,96.0
2023-04-22T00:27:52.000Z,96.0
2023-04-22T00:28:21.000Z,96.0
2023-04-22T00:28:52.000Z,96.0
2023-04-22T00:29:27.000Z,96.0
2023-04-22T00:29:56.000Z,96.0
2023-04-22T00:30:32.000Z,96.0
2023-04-22T00:30:53.000Z,96.0
2023-04-22T00:31:16.000Z,96.0
2023-04-22T00:31:52.000Z,96.0
2023-04-22T00:32:21.000Z,96.0
2023-04-22T00:32:52.000Z,96.0
2023-04-22T00:33:26.000Z,96.0
2023-04-22T00:34:06.000Z,96.0
2023-04-22T00:34:31.000Z,96.0
2023-04-22T00:34:56.000Z,96.0
2023-04-22T00:35:19.000Z,96.0
2023-04-22T00:35:46.000Z,96.0
2023-04-22T00:36:13.000Z,96.0
2023-04-22T00:36:38.000Z,96.0
2023-04-22T00:37:01.000Z,96.0
2023-04-22T00:37:26.000Z,96.0
2023-04-22T00:37:52.000Z,96.0
2023-04-22T00:38:21.000Z,96.0
2023-04-22T00:38:48.000Z,96.0
2023-04-22T00:39:18.000Z,96.0
2023-04-22T00:39:52.000Z,96.0
2023-04-22T00:40:22.000Z,96.0
2023-04-22T00:40:52.000Z,96.0
2023-04-22T00:41:27.000Z,96.0
2023-04-22T00:41:56.000Z,96.0
2023-04-22T00:42:32.000Z,97.0
2023-04-22T00:42:53.000Z,97.0
2023-04-22T00:43:17.000Z,97.0
2023-04-22T00:43:52.000Z,97.0
2023-04-22T00:44:22.000Z,97.0
2023-04-22T00:44:52.000Z,97.0
2023-04-22T00:45:26.000Z,97.0
2023-04-22T00:45:57.000Z,97.0
2023-04-22T00:46:31.000Z,97.0
2023-04-22T00:46:53.000Z,97.0
2023-04-22T00:47:16.000Z,97.0
2023-04-22T00:47:52.000Z,97.0
2023-04-22T00:48:22.000Z,97.0
2023-04-22T00:48:52.000Z,97.0
2023-04-22T00:49:26.000Z,97.0
2023-04-22T00:49:56.000Z,97.0
2023-04-22T00:50:32.000Z,97.0
2023-04-22T00:50:54.000Z,97.0
2023-04-22T00:51:16.000Z,97.0
2023-04-22T00:51:46.000Z,97.0
2023-04-22T00:52:13.000Z,97.0
2023-04-22T00:52:38.000Z,97.0
2023-04-22T00:53:12.000Z,97.0
2023-04-22T00:53:42.000Z,97.0
2023-04-22T00:54:12.000Z,97.0
2023-04-22T00:54:47.000Z,97.0
2023-04-22T00:55:18.000Z,97.0
2023-04-22T00:55:51.000Z,97.0
2023-04-22T00:56:21.000Z,97.0
2023-04-22T00:56:52.000Z,97.0
2023-04-22T00:57:27.000Z,97.0
2023-04-22T00:57:56.000Z,97.0
2023-04-22T00:58:41.000Z,97.0
2023-04-22T00:59:11.000Z,97.0
2023-04-22T00:59:41.000Z,97.0
2023-04-22T01:00:08.000Z,97.0
2023-04-22T01:00:34.000Z,97.0
2023-04-22T01:01:01.000Z,97.0
2023-04-22T01:01:26.000Z,97.0
2023-04-22T01:01:52.000Z,97.0
2023-04-22T01:02:21.000Z,97.0
2023-04-22T01:02:48.000Z,97.0
2023-04-22T01:03:14.000Z,97.0
2023-04-22T01:03:41.000Z,97.0
2023-04-22T01:04:08.000Z,97.0
2023-04-22T01:04:34.000Z,97.0
2023-04-22T01:05:01.000Z,97.0
2023-04-22T01:05:26.000Z,97.0
2023-04-22T01:05:52.000Z,97.0
2023-04-22T01:06:21.000Z,97.0
2023-04-22T01:06:48.000Z,97.0
2023-04-22T01:07:14.000Z,97.0
2023-04-22T01:07:32.000Z,97.0
2023-04-22T01:07:52.000Z,97.0
2023-04-22T01:08:22.000Z,98.0
2023-04-22T01:08:52.000Z,98.0
2023-04-22T01:09:27.000Z,98.0
2023-04-22T01:09:57.000Z,98.0
2023-04-22T01:10:32.000Z,98.0
2023-04-22T01:10:53.000Z,98.0
2023-04-22T01:11:17.000Z,98.0
2023-04-22T01:11:52.000Z,98.0
2023-04-22T01:12:21.000Z,98.0
2023-04-22T01:12:52.000Z,98.0
2023-04-22T01:13:27.000Z,98.0
2023-04-22T01:13:57.000Z,98.0
2023-04-22T01:14:31.000Z,98.0
2023-04-22T01:14:53.000Z,98.0
2023-04-22T01:15:17.000Z,98.0
2023-04-22T01:15:52.000Z,98.0
2023-04-22T01:16:22.000Z,98.0
2023-04-22T01:16:52.000Z,98.0
2023-04-22T01:17:27.000Z,98.0
2023-04-22T01:17:57.000Z,98.0
2023-04-22T01:18:32.000Z,98.0
2023-04-22T01:18:53.000Z,98.0
2023-04-22T01:19:17.000Z,98.0
2023-04-22T01:19:52.000Z,98.0
2023-04-22T01:20:18.000Z,98.0
2023-04-22T01:20:57.000Z,98.0
2023-04-22T01:21:22.000Z,98.0
2023-04-22T01:21:51.000Z,98.0
2023-04-22T01:22:21.000Z,98.0
2023-04-22T01:22:48.000Z,98.0
2023-04-22T01:23:18.000Z,98.0
2023-04-22T01:23:52.000Z,98.0
2023-04-22T01:24:31.000Z,98.0
2023-04-22T01:25:01.000Z,98.0
2023-04-22T01:25:26.000Z,98.0
2023-04-22T01:25:52.000Z,98.0
2023-04-22T01:26:21.000Z,98.0
2023-04-22T01:26:47.000Z,98.0
2023-04-22T01:27:17.000Z,98.0
2023-04-22T01:27:52.000Z,98.0
2023-04-22T01:28:22.000Z,98.0
2023-04-22T01:28:52.000Z,98.0
2023-04-22T01:29:22.000Z,98.0
2023-04-22T01:29:41.000Z,98.0
2023-04-22T01:30:12.000Z,98.0
2023-04-22T01:30:47.000Z,98.0
2023-04-22T01:31:16.000Z,98.0
2023-04-22T01:32:01.000Z,98.0
2023-04-22T01:32:24.000Z,98.0
2023-04-22T01:32:53.000Z,98.0
2023-04-22T01:33:27.000Z,98.0
2023-04-22T01:33:56.000Z,98.0
2023-04-22T01:34:32.000Z,98.0
2023-04-22T01:34:54.000Z,98.0
2023-04-22T01:35:17.000Z,98.0
2023-04-22T01:35:52.000Z,98.0
2023-04-22T01:36:21.000Z,98.0
2023-04-22T01:36:52.000Z,98.0
2023-04-22T01:37:27.000Z,98.0
2023-04-22T01:37:57.000Z,98.0
2023-04-22T01:38:32.000Z,98.0
2023-04-22T01:38:54.000Z,98.0
2023-04-22T01:39:14.000Z,98.0
2023-04-22T01:39:32.000Z,98.0
2023-04-22T01:39:58.000Z,98.0
2023-04-22T01:40:23.000Z,98.0
2023-04-22T01:40:52.000Z,98.0
2023-04-22T01:41:27.000Z,98.0
2023-04-22T01:41:57.000Z,98.0
2023-04-22T01:42:32.000Z,98.0
2023-04-22T01:42:53.000Z,98.0
2023-04-22T01:43:17.000Z,98.0
2023-04-22T01:43:52.000Z,98.0
2023-04-22T01:44:21.000Z,98.0
2023-04-22T01:44:52.000Z,98.0
2023-04-22T01:45:26.000Z,98.0
2023-04-22T01:45:52.000Z,98.0
2023-04-22T01:46:12.000Z,98.0
2023-04-22T01:46:47.000Z,98.0
2023-04-22T01:47:16.000Z,98.0
2023-04-22T01:47:53.000Z,98.0
2023-04-22T01:48:22.000Z,98.0
2023-04-22T01:48:52.000Z,98.0
2023-04-22T01:49:27.000Z,98.0
2023-04-22T01:49:57.000Z,98.0
2023-04-22T01:50:31.000Z,98.0
2023-04-22T01:50:54.000Z,98.0
2023-04-22T01:51:16.000Z,98.0
2023-04-22T01:51:51.000Z,98.0
2023-04-22T01:52:21.000Z,98.0
2023-04-22T01:53:01.000Z,98.0
2023-04-22T01:53:26.000Z,98.0
2023-04-22T01:53:52.000Z,98.0
2023-04-22T01:54:12.000Z,98.0
2023-04-22T01:54:46.000Z,98.0
2023-04-22T01:55:17.000Z,98.0
2023-04-22T01:55:52.000Z,98.0
2023-04-22T01:56:22.000Z,98.0
2023-04-22T01:56:51.000Z,98.0
2023-04-22T01:57:22.000Z,98.0
2023-04-22T01:57:42.000Z,98.0
2023-04-22T01:58:11.000Z,98.0
2023-04-22T01:58:46.000Z,98.0
2023-04-22T01:59:17.000Z,98.0
2023-04-22T01:59:52.000Z,98.0
2023-04-22T02:00:26.000Z,98.0
2023-04-22T02:00:53.000Z,98.0
2023-04-22T02:01:26.000Z,98.0
2023-04-22T02:01:52.000Z,98.0
2023-04-22T02:02:21.000Z,98.0
2023-04-22T02:02:48.000Z,99.0
2023-04-22T02:03:14.000Z,99.0
2023-04-22T02:03:41.000Z,98.0
2023-04-22T02:04:08.000Z,98.0
2023-04-22T02:04:34.000Z,98.0
2023-04-22T02:04:52.000Z,98.0
2023-04-22T02:05:26.000Z,98.0
2023-04-22T02:05:57.000Z,98.0
2023-04-22T02:06:35.000Z,99.0
2023-04-22T02:06:53.000Z,99.0
2023-04-22T02:07:16.000Z,99.0
2023-04-22T02:07:52.000Z,99.0
2023-04-22T02:08:22.000Z,99.0
2023-04-22T02:08:51.000Z,99.0
2023-04-22T02:09:27.000Z,99.0
2023-04-22T02:09:57.000Z,99.0
2023-04-22T02:10:32.000Z,99.0
2023-04-22T02:10:55.000Z,99.0
2023-04-22T02:11:14.000Z,99.0
2023-04-22T02:11:32.000Z,99.0
2023-04-22T02:11:58.000Z,99.0
2023-04-22T02:12:22.000Z,99.0
2023-04-22T02:12:51.000Z,99.0
2023-04-22T02:13:22.000Z,99.0
2023-04-22T02:13:41.000Z,99.0
2023-04-22T02:14:12.000Z,99.0
2023-04-22T02:14:47.000Z,99.0
2023-04-22T02:15:16.000Z,99.0
2023-04-22T02:15:52.000Z,99.0
2023-04-22T02:16:22.000Z,99.0
2023-04-22T02:16:52.000Z,99.0
2023-04-22T02:17:22.000Z,99.0
2023-04-22T02:17:42.000Z,99.0
2023-04-22T02:18:12.000Z,99.0
2023-04-22T02:18:47.000Z,99.0
2023-04-22T02:19:17.000Z,99.0
2023-04-22T02:19:52.000Z,99.0
2023-04-22T02:20:21.000Z,99.0
2023-04-22T02:20:51.000Z,99.0
2023-04-22T02:21:26.000Z,99.0
2023-04-22T02:21:56.000Z,99.0
2023-04-22T02:22:33.000Z,99.0
2023-04-22T02:22:53.000Z,99.0
2023-04-22T02:23:18.000Z,99.0
2023-04-22T02:23:52.000Z,99.0
2023-04-22T02:24:22.000Z,99.0
2023-04-22T02:24:52.000Z,99.0
2023-04-22T02:25:27.000Z,99.0
2023-04-22T02:25:57.000Z,99.0
2023-04-22T02:26:32.000Z,99.0
2023-04-22T02:26:53.000Z,99.0
2023-04-22T02:27:17.000Z,99.0
2023-04-22T02:27:52.000Z,99.0
2023-04-22T02:28:22.000Z,99.0
2023-04-22T02:28:52.000Z,99.0
2023-04-22T02:29:36.000Z,99.0
2023-04-22T02:29:57.000Z,99.0
2023-04-22T02:30:32.000Z,99.0
2023-04-22T02:30:53.000Z,99.0
2023-04-22T02:31:17.000Z,99.0
2023-04-22T02:31:52.000Z,99.0
2023-04-22T02:32:22.000Z,99.0
2023-04-22T02:32:52.000Z,99.0
2023-04-22T02:33:26.000Z,99.0
2023-04-22T02:33:57.000Z,99.0
2023-04-22T02:34:32.000Z,99.0
2023-04-22T02:34:53.000Z,99.0
2023-04-22T02:35:17.000Z,99.0
2023-04-22T02:35:51.000Z,99.0
2023-04-22T02:36:31.000Z,99.0
2023-04-22T02:37:01.000Z,99.0
2023-04-22T02:37:26.000Z,99.0
2023-04-22T02:37:52.000Z,99.0
2023-04-22T02:38:21.000Z,99.0
2023-04-22T02:38:48.000Z,99.0
2023-04-22T02:39:14.000Z,99.0
2023-04-22T02:39:41.000Z,99.0
2023-04-22T02:40:08.000Z,99.0
2023-04-22T02:40:34.000Z,99.0
2023-04-22T02:41:01.000Z,99.0
2023-04-22T02:41:27.000Z,99.0
2023-04-22T02:41:52.000Z,99.0
2023-04-22T02:42:21.000Z,99.0
2023-04-22T02:42:47.000Z,99.0
2023-04-22T02:43:17.000Z,99.0
2023-04-22T02:43:52.000Z,99.0
2023-04-22T02:44:21.000Z,99.0
2023-04-22T02:44:51.000Z,99.0
2023-04-22T02:45:27.000Z,99.0
2023-04-22T02:45:57.000Z,99.0
2023-04-22T02:46:33.000Z,99.0
2023-04-22T02:46:53.000Z,99.0
2023-04-22T02:47:17.000Z,99.0
2023-04-22T02:47:52.000Z,99.0
2023-04-22T02:48:18.000Z,99.0
2023-04-22T02:48:56.000Z,99.0
2023-04-22T02:49:22.000Z,99.0
2023-04-22T02:49:51.000Z,99.0
2023-04-22T02:50:21.000Z,99.0
2023-04-22T02:50:48.000Z,99.0
2023-04-22T02:51:14.000Z,98.0
2023-04-22T02:51:41.000Z,98.0
2023-04-22T02:52:07.000Z,98.0
2023-04-22T02:52:36.000Z,98.0
2023-04-22T02:53:07.000Z,98.0
2023-04-22T02:53:26.000Z,98.0
2023-04-22T02:53:57.000Z,98.0
2023-04-22T02:54:31.000Z,98.0
2023-04-22T02:54:53.000Z,98.0
2023-04-22T02:55:17.000Z,98.0
2023-04-22T02:55:51.000Z,98.0
2023-04-22T02:56:21.000Z,98.0
2023-04-22T02:56:52.000Z,98.0
2023-04-22T02:57:36.000Z,98.0
2023-04-22T02:58:06.000Z,98.0
2023-04-22T02:58:33.000Z,97.0
2023-04-22T02:58:56.000Z,97.0
2023-04-22T02:59:19.000Z,97.0
2023-04-22T02:59:54.000Z,97.0
2023-04-22T03:00:21.000Z,97.0
2023-04-22T03:00:52.000Z,97.0
2023-04-22T03:01:27.000Z,96.0
2023-04-22T03:01:57.000Z,96.0
2023-04-22T03:02:31.000Z,96.0
2023-04-22T03:02:53.000Z,96.0
2023-04-22T03:03:17.000Z,96.0
2023-04-22T03:03:52.000Z,95.0
2023-04-22T03:04:21.000Z,95.0
2023-04-22T03:04:52.000Z,95.0
2023-04-22T03:05:27.000Z,95.0
2023-04-22T03:06:06.000Z,94.0
2023-04-22T03:06:32.000Z,94.0
2023-04-22T03:06:53.000Z,94.0
2023-04-22T03:07:16.000Z,94.0
2023-04-22T03:07:52.000Z,94.0
2023-04-22T03:08:22.000Z,93.0
2023-04-22T03:08:52.000Z,93.0
2023-04-22T03:09:27.000Z,93.0
2023-04-22T03:09:57.000Z,93.0
2023-04-22T03:10:32.000Z,93.0
2023-04-22T03:10:53.000Z,92.0
2023-04-22T03:11:17.000Z,92.0
2023-04-22T03:11:52.000Z,92.0
2023-04-22T03:12:31.000Z,92.0
2023-04-22T03:13:01.000Z,91.0
2023-04-22T03:13:26.000Z,91.0
2023-04-22T03:13:52.000Z,91.0
2023-04-22T03:14:12.000Z,91.0
2023-04-22T03:14:46.000Z,90.0
2023-04-22T03:15:16.000Z,90.0
2023-04-22T03:15:51.000Z,89.0
2023-04-22T03:16:22.000Z,89.0
2023-04-22T03:16:52.000Z,89.0
2023-04-22T03:17:22.000Z,88.0
2023-04-22T03:17:42.000Z,88.0
2023-04-22T03:18:12.000Z,87.0
2023-04-22T03:18:47.000Z,87.0
2023-04-22T03:19:17.000Z,87.0
2023-04-22T03:19:51.000Z,86.0
2023-04-22T03:20:22.000Z,86.0
2023-04-22T03:20:52.000Z,86.0
2023-04-22T03:21:27.000Z,86.0
2023-04-22T03:21:57.000Z,86.0
2023-04-22T03:22:32.000Z,86.0
2023-04-22T03:22:54.000Z,86.0
2023-04-22T03:23:17.000Z,86.0
2023-04-22T03:23:52.000Z,85.0
2023-04-22T03:24:22.000Z,85.0
2023-04-22T03:24:52.000Z,85.0
2023-04-22T03:25:27.000Z,85.0
2023-04-22T03:25:57.000Z,85.0
2023-04-22T03:26:32.000Z,85.0
2023-04-22T03:26:54.000Z,85.0
2023-04-22T03:27:14.000Z,85.0
2023-04-22T03:27:41.000Z,85.0
2023-04-22T03:28:07.000Z,85.0
2023-04-22T03:28:37.000Z,85.0
2023-04-22T03:29:12.000Z,85.0
2023-04-22T03:29:42.000Z,85.0
2023-04-22T03:30:12.000Z,85.0
2023-04-22T03:30:47.000Z,85.0
2023-04-22T03:31:17.000Z,86.0
2023-04-22T03:31:52.000Z,86.0
2023-04-22T03:32:22.000Z,86.0
2023-04-22T03:32:52.000Z,86.0
2023-04-22T03:33:27.000Z,85.0
2023-04-22T03:34:06.000Z,86.0
2023-04-22T03:34:31.000Z,86.0
2023-04-22T03:34:56.000Z,86.0
2023-04-22T03:35:17.000Z,86.0
2023-04-22T03:35:52.000Z,86.0
2023-04-22T03:36:22.000Z,86.0
2023-04-22T03:36:52.000Z,85.0
2023-04-22T03:37:27.000Z,85.0
2023-04-22T03:37:57.000Z,85.0
2023-04-22T03:38:33.000Z,85.0
2023-04-22T03:38:53.000Z,85.0
2023-04-22T03:39:16.000Z,86.0
2023-04-22T03:39:52.000Z,85.0
2023-04-22T03:40:22.000Z,85.0
2023-04-22T03:41:01.000Z,86.0
2023-04-22T03:41:26.000Z,86.0
2023-04-22T03:41:56.000Z,86.0
2023-04-22T03:42:31.000Z,85.0
2023-04-22T03:42:53.000Z,85.0
2023-04-22T03:43:17.000Z,85.0
2023-04-22T03:43:55.000Z,85.0
2023-04-22T03:44:22.000Z,85.0
2023-04-22T03:44:52.000Z,85.0
2023-04-22T03:45:27.000Z,85.0
2023-04-22T03:45:56.000Z,85.0
2023-04-22T03:46:32.000Z,85.0
2023-04-22T03:46:53.000Z,85.0
2023-04-22T03:47:16.000Z,85.0
2023-04-22T03:47:51.000Z,84.0
2023-04-22T03:48:22.000Z,84.0
2023-04-22T03:48:52.000Z,84.0
2023-04-22T03:49:27.000Z,84.0
2023-04-22T03:49:57.000Z,84.0
2023-04-22T03:50:32.000Z,84.0
2023-04-22T03:50:53.000Z,84.0
2023-04-22T03:51:16.000Z,84.0
2023-04-22T03:51:52.000Z,84.0
2023-04-22T03:52:22.000Z,84.0
2023-04-22T03:52:51.000Z,84.0
2023-04-22T03:53:27.000Z,84.0
2023-04-22T03:54:06.000Z,84.0
2023-04-22T03:54:31.000Z,84.0
2023-04-22T03:54:56.000Z,84.0
2023-04-22T03:55:19.000Z,84.0
2023-04-22T03:55:51.000Z,84.0
2023-04-22T03:56:22.000Z,84.0
2023-04-22T03:56:52.000Z,84.0
2023-04-22T03:57:27.000Z,84.0
2023-04-22T03:57:56.000Z,84.0
2023-04-22T03:58:32.000Z,84.0
2023-04-22T03:58:53.000Z,84.0
2023-04-22T03:59:16.000Z,85.0
2023-04-22T03:59:52.000Z,85.0
2023-04-22T04:00:21.000Z,85.0
2023-04-22T04:00:52.000Z,85.0
2023-04-22T04:01:27.000Z,85.0
2023-04-22T04:02:06.000Z,85.0
2023-04-22T04:02:31.000Z,85.0
2023-04-22T04:02:56.000Z,85.0
2023-04-22T04:03:20.000Z,85.0
2023-04-22T04:03:51.000Z,85.0
2023-04-22T04:04:22.000Z,85.0
2023-04-22T04:04:51.000Z,85.0
2023-04-22T04:05:26.000Z,85.0
2023-04-22T04:05:56.000Z,85.0
2023-04-22T04:06:31.000Z,85.0
2023-04-22T04:06:54.000Z,85.0
2023-04-22T04:07:16.000Z,85.0
2023-04-22T04:07:51.000Z,85.0
2023-04-22T04:08:21.000Z,85.0
2023-04-22T04:08:52.000Z,85.0
2023-04-22T04:09:30.000Z,86.0
2023-04-22T04:09:58.000Z,85.0
2023-04-22T04:10:32.000Z,86.0
2023-04-22T04:10:53.000Z,86.0
2023-04-22T04:11:16.000Z,86.0
2023-04-22T04:11:52.000Z,86.0
2023-04-22T04:12:22.000Z,86.0
2023-04-22T04:12:52.000Z,86.0
2023-04-22T04:13:27.000Z,86.0
2023-04-22T04:13:57.000Z,86.0
2023-04-22T04:14:32.000Z,86.0
2023-04-22T04:14:53.000Z,86.0
2023-04-22T04:15:17.000Z,86.0
2023-04-22T04:15:52.000Z,86.0
2023-04-22T04:16:22.000Z,86.0
2023-04-22T04:16:52.000Z,86.0
2023-04-22T04:17:27.000Z,86.0
2023-04-22T04:17:57.000Z,86.0
2023-04-22T04:18:32.000Z,86.0
2023-04-22T04:18:54.000Z,86.0
2023-04-22T04:19:18.000Z,86.0
2023-04-22T04:19:52.000Z,87.0
2023-04-22T04:20:22.000Z,87.0
2023-04-22T04:20:52.000Z,87.0
2023-04-22T04:21:27.000Z,87.0
2023-04-22T04:21:58.000Z,87.0
2023-04-22T04:22:32.000Z,87.0
2023-04-22T04:22:53.000Z,87.0
2023-04-22T04:23:17.000Z,87.0
2023-04-22T04:23:52.000Z,87.0
2023-04-22T04:24:22.000Z,88.0
2023-04-22T04:24:52.000Z,88.0
2023-04-22T04:25:27.000Z,88.0
2023-04-22T04:25:57.000Z,88.0
2023-04-22T04:26:32.000Z,88.0
2023-04-22T04:26:53.000Z,88.0
2023-04-22T04:27:17.000Z,88.0
2023-04-22T04:28:01.000Z,88.0
2023-04-22T04:28:34.000Z,88.0
2023-04-22T04:29:01.000Z,88.0
2023-04-22T04:29:26.000Z,88.0
2023-04-22T04:29:52.000Z,88.0
2023-04-22T04:30:21.000Z,88.0
2023-04-22T04:30:48.000Z,88.0
2023-04-22T04:31:14.000Z,88.0
2023-04-22T04:31:41.000Z,88.0
2023-04-22T04:32:08.000Z,88.0
2023-04-22T04:32:34.000Z,88.0
2023-04-22T04:33:01.000Z,88.0
2023-04-22T04:33:26.000Z,88.0
2023-04-22T04:33:58.000Z,88.0
2023-04-22T04:34:32.000Z,88.0
2023-04-22T04:34:53.000Z,88.0
2023-04-22T04:35:18.000Z,88.0
2023-04-22T04:35:51.000Z,87.0
2023-04-22T04:36:22.000Z,87.0
2023-04-22T04:36:52.000Z,87.0
2023-04-22T04:37:27.000Z,87.0
2023-04-22T04:37:57.000Z,87.0
2023-04-22T04:38:32.000Z,87.0
2023-04-22T04:38:53.000Z,87.0
2023-04-22T04:39:26.000Z,87.0
2023-04-22T04:39:53.000Z,87.0
2023-04-22T04:40:21.000Z,87.0
2023-04-22T04:40:57.000Z,87.0
2023-04-22T04:41:22.000Z,86.0
2023-04-22T04:41:51.000Z,87.0
2023-04-22T04:42:21.000Z,87.0
2023-04-22T04:42:48.000Z,87.0
2023-04-22T04:43:16.000Z,87.0
2023-04-22T04:43:52.000Z,87.0
2023-04-22T04:44:22.000Z,87.0
2023-04-22T04:44:51.000Z,86.0
2023-04-22T04:45:26.000Z,86.0
2023-04-22T04:45:57.000Z,86.0
2023-04-22T04:46:41.000Z,86.0
2023-04-22T04:47:01.000Z,86.0
2023-04-22T04:47:33.000Z,86.0
2023-04-22T04:47:58.000Z,86.0
2023-04-22T04:48:23.000Z,86.0
2023-04-22T04:48:51.000Z,86.0
2023-04-22T04:49:27.000Z,86.0
2023-04-22T04:49:57.000Z,86.0
2023-04-22T04:50:32.000Z,86.0
2023-04-22T04:50:53.000Z,86.0
2023-04-22T04:51:17.000Z,86.0
2023-04-22T04:51:52.000Z,86.0
2023-04-22T04:52:22.000Z,86.0
2023-04-22T04:52:52.000Z,86.0
2023-04-22T04:53:27.000Z,86.0
2023-04-22T04:53:57.000Z,86.0
2023-04-22T04:54:32.000Z,87.0
2023-04-22T04:54:54.000Z,87.0
2023-04-22T04:55:14.000Z,87.0
2023-04-22T04:55:41.000Z,87.0
2023-04-22T04:56:08.000Z,88.0
2023-04-22T04:56:34.000Z,88.0
2023-04-22T04:57:01.000Z,88.0
2023-04-22T04:57:27.000Z,88.0
2023-04-22T04:57:52.000Z,88.0
2023-04-22T04:58:21.000Z,88.0
2023-04-22T04:58:48.000Z,88.0
2023-04-22T04:59:14.000Z,88.0
2023-04-22T04:59:41.000Z,88.0
2023-04-22T05:00:06.000Z,88.0
2023-04-22T05:00:34.000Z,88.0
2023-04-22T05:01:01.000Z,88.0
2023-04-22T05:01:26.000Z,88.0
2023-04-22T05:01:56.000Z,88.0
2023-04-22T05:02:32.000Z,87.0
2023-04-22T05:02:54.000Z,87.0
2023-04-22T05:03:17.000Z,87.0
2023-04-22T05:03:52.000Z,87.0
2023-04-22T05:04:22.000Z,87.0
2023-04-22T05:04:52.000Z,87.0
2023-04-22T05:05:27.000Z,87.0
2023-04-22T05:05:57.000Z,87.0
2023-04-22T05:06:32.000Z,87.0
2023-04-22T05:06:53.000Z,87.0
2023-04-22T05:07:16.000Z,87.0
2023-04-22T05:07:52.000Z,86.0
2023-04-22T05:08:22.000Z,86.0
2023-04-22T05:08:52.000Z,86.0
2023-04-22T05:09:27.000Z,86.0
2023-04-22T05:09:56.000Z,86.0
2023-04-22T05:10:32.000Z,86.0
2023-04-22T05:10:53.000Z,86.0
2023-04-22T05:11:17.000Z,86.0
2023-04-22T05:11:52.000Z,86.0
2023-04-22T05:12:21.000Z,86.0
2023-04-22T05:12:51.000Z,86.0
2023-04-22T05:13:27.000Z,86.0
2023-04-22T05:13:56.000Z,86.0
2023-04-22T05:14:32.000Z,86.0
2023-04-22T05:14:53.000Z,86.0
2023-04-22T05:15:17.000Z,86.0
2023-04-22T05:15:51.000Z,87.0
2023-04-22T05:16:22.000Z,87.0
2023-04-22T05:16:52.000Z,87.0
2023-04-22T05:17:22.000Z,87.0
2023-04-22T05:17:42.000Z,87.0
2023-04-22T05:18:12.000Z,87.0
2023-04-22T05:18:47.000Z,87.0
2023-04-22T05:19:17.000Z,87.0
2023-04-22T05:20:01.000Z,87.0
2023-04-22T05:20:22.000Z,88.0
2023-04-22T05:20:51.000Z,88.0
2023-04-22T05:21:27.000Z,88.0
2023-04-22T05:21:57.000Z,88.0
2023-04-22T05:22:32.000Z,87.0
2023-04-22T05:22:53.000Z,87.0
2023-04-22T05:23:16.000Z,87.0
2023-04-22T05:23:52.000Z,87.0
2023-04-22T05:24:22.000Z,87.0
2023-04-22T05:24:52.000Z,87.0
2023-04-22T05:25:27.000Z,87.0
2023-04-22T05:26:06.000Z,87.0
2023-04-22T05:26:31.000Z,87.0
2023-04-22T05:26:56.000Z,87.0
2023-04-22T05:27:19.000Z,87.0
2023-04-22T05:27:57.000Z,87.0
2023-04-22T05:28:21.000Z,87.0
2023-04-22T05:28:51.000Z,87.0
2023-04-22T05:29:27.000Z,87.0
2023-04-22T05:29:57.000Z,87.0
2023-04-22T05:30:27.000Z,86.0
2023-04-22T05:30:53.000Z,86.0
2023-04-22T05:31:16.000Z,86.0
2023-04-22T05:31:51.000Z,86.0
2023-04-22T05:32:21.000Z,86.0
2023-04-22T05:32:52.000Z,86.0
2023-04-22T05:33:27.000Z,86.0
2023-04-22T05:33:58.000Z,86.0
2023-04-22T05:34:31.000Z,85.0
2023-04-22T05:34:54.000Z,85.0
2023-04-22T05:35:16.000Z,85.0
2023-04-22T05:35:47.000Z,85.0
2023-04-22T05:36:22.000Z,85.0
2023-04-22T05:36:52.000Z,85.0
2023-04-22T05:37:26.000Z,85.0
2023-04-22T05:37:56.000Z,85.0
2023-04-22T05:38:32.000Z,85.0
2023-04-22T05:38:54.000Z,85.0
2023-04-22T05:39:17.000Z,85.0
2023-04-22T05:39:52.000Z,85.0
2023-04-22T05:40:31.000Z,85.0
2023-04-22T05:41:01.000Z,85.0
2023-04-22T05:41:26.000Z,85.0
2023-04-22T05:41:52.000Z,84.0
2023-04-22T05:42:12.000Z,84.0
2023-04-22T05:42:47.000Z,84.0
2023-04-22T05:43:17.000Z,84.0
2023-04-22T05:43:52.000Z,84.0
2023-04-22T05:44:22.000Z,84.0
2023-04-22T05:44:52.000Z,84.0
2023-04-22T05:45:22.000Z,84.0
2023-04-22T05:45:42.000Z,84.0
2023-04-22T05:46:12.000Z,84.0
2023-04-22T05:46:47.000Z,84.0
2023-04-22T05:47:16.000Z,84.0
2023-04-22T05:47:51.000Z,84.0
2023-04-22T05:48:22.000Z,84.0
2023-04-22T05:48:52.000Z,84.0
2023-04-22T05:49:27.000Z,83.0
2023-04-22T05:49:57.000Z,83.0
2023-04-22T05:50:32.000Z,83.0
2023-04-22T05:50:54.000Z,83.0
2023-04-22T05:51:16.000Z,83.0
2023-04-22T05:51:47.000Z,83.0
2023-04-22T05:52:22.000Z,83.0
2023-04-22T05:52:52.000Z,83.0
2023-04-22T05:53:27.000Z,83.0
2023-04-22T05:53:56.000Z,83.0
2023-04-22T05:54:41.000Z,83.0
2023-04-22T05:55:11.000Z,83.0
2023-04-22T05:55:41.000Z,83.0
2023-04-22T05:56:08.000Z,82.0
2023-04-22T05:56:34.000Z,82.0
2023-04-22T05:57:01.000Z,81.0
2023-04-22T05:57:26.000Z,80.0
2023-04-22T05:57:57.000Z,80.0
2023-04-22T05:58:27.000Z,80.0
2023-04-22T05:58:53.000Z,80.0
2023-04-22T05:59:17.000Z,79.0
2023-04-22T05:59:47.000Z,79.0
2023-04-22T06:00:03.000Z,79.0
2023-04-22T06:00:37.000Z,79.0
2023-04-22T06:01:12.000Z,79.0
2023-04-22T06:01:42.000Z,79.0
2023-04-22T06:02:12.000Z,78.0
2023-04-22T06:02:47.000Z,78.0
2023-04-22T06:03:17.000Z,79.0
2023-04-22T06:03:51.000Z,79.0
2023-04-22T06:04:21.000Z,78.0
2023-04-22T06:04:51.000Z,78.0
2023-04-22T06:05:27.000Z,78.0
2023-04-22T06:05:57.000Z,78.0
2023-04-22T06:06:27.000Z,79.0
2023-04-22T06:06:53.000Z,78.0
2023-04-22T06:07:17.000Z,78.0
2023-04-22T06:07:47.000Z,78.0
2023-04-22T06:08:03.000Z,77.0
2023-04-22T06:08:36.000Z,77.0
2023-04-22T06:09:11.000Z,77.0
2023-04-22T06:09:51.000Z,77.0
2023-04-22T06:10:21.000Z,78.0
2023-04-22T06:10:48.000Z,78.0
2023-04-22T06:11:14.000Z,77.0
2023-04-22T06:11:52.000Z,77.0
2023-04-22T06:12:31.000Z,78.0
2023-04-22T06:13:01.000Z,77.0
2023-04-22T06:13:26.000Z,77.0
2023-04-22T06:13:52.000Z,77.0
2023-04-22T06:14:21.000Z,77.0
2023-04-22T06:14:48.000Z,77.0
2023-04-22T06:15:14.000Z,77.0
2023-04-22T06:15:41.000Z,78.0
2023-04-22T06:16:08.000Z,78.0
2023-04-22T06:16:37.000Z,78.0
2023-04-22T06:17:12.000Z,77.0
2023-04-22T06:17:42.000Z,77.0
2023-04-22T06:18:12.000Z,77.0
2023-04-22T06:18:47.000Z,77.0
2023-04-22T06:19:16.000Z,77.0
2023-04-22T06:19:46.000Z,77.0
2023-04-22T06:20:04.000Z,78.0
2023-04-22T06:20:36.000Z,78.0
2023-04-22T06:21:12.000Z,78.0
2023-04-22T06:21:42.000Z,78.0
2023-04-22T06:22:21.000Z,79.0
2023-04-22T06:22:48.000Z,79.0
2023-04-22T06:23:14.000Z,79.0
2023-04-22T06:23:41.000Z,79.0
2023-04-22T06:24:08.000Z,79.0
2023-04-22T06:24:37.000Z,78.0
2023-04-22T06:25:12.000Z,79.0
2023-04-22T06:25:42.000Z,79.0
2023-04-22T06:25:57.000Z,79.0
2023-04-22T06:26:27.000Z,78.0
2023-04-22T06:26:53.000Z,77.0
2023-04-22T06:27:17.000Z,77.0
2023-04-22T06:27:47.000Z,77.0
2023-04-22T06:28:04.000Z,78.0
2023-04-22T06:28:37.000Z,78.0
2023-04-22T06:29:06.000Z,77.0
2023-04-22T06:29:27.000Z,77.0
2023-04-22T06:29:58.000Z,77.0
2023-04-22T06:30:32.000Z,77.0
2023-04-22T06:30:54.000Z,77.0